Time;durP1;ratioP1;P1;durP2;ratioP2;P2;SDS_P1;SDS_P2;PMS_P1;PMS_P2;Temp;Humidity;BMP_temperature;BMP_pressure;BME280_temperature;BME280_humidity;BME280_pressure;Samples;Min_cycle;Max_cycle;Signal;HPM_P1;HPM_P2
2021/05/05 00:01:13;;;;;;;4.38;1.70;;;;;;;9.03;81.01;98853.59;5196829;28;20029;-78
2021/05/05 00:03:43;;;;;;;4.85;1.70;;;;;;;9.00;80.70;98851.16;5191639;28;20060;-78
2021/05/05 00:06:16;;;;;;;5.78;1.70;;;;;;;8.90;80.96;98846.56;5194721;28;20022;-78
2021/05/05 00:08:47;;;;;;;4.72;1.98;;;;;;;8.91;81.60;98854.28;5173245;28;20410;-78
2021/05/05 00:11:18;;;;;;;3.58;1.90;;;;;;;9.00;80.79;98856.38;5193985;28;20030;-78
2021/05/05 00:13:48;;;;;;;4.95;1.63;;;;;;;9.07;80.86;98847.25;5196021;28;20026;-78
2021/05/05 00:16:19;;;;;;;4.15;1.60;;;;;;;8.98;80.38;98850.41;5201726;28;20121;-78
2021/05/05 00:18:49;;;;;;;4.03;1.70;;;;;;;9.05;80.92;98851.72;5200873;28;20037;-78
2021/05/05 00:21:19;;;;;;;4.70;1.55;;;;;;;9.06;80.33;98857.78;5194363;28;20021;-78
2021/05/05 00:23:50;;;;;;;4.13;1.38;;;;;;;9.03;80.02;98853.59;5178194;28;20017;-77
2021/05/05 00:26:20;;;;;;;6.32;1.55;;;;;;;8.94;80.65;98853.25;5181012;28;20022;-79
2021/05/05 00:28:51;;;;;;;3.88;1.48;;;;;;;9.08;80.78;98848.13;5207390;28;20032;-78
2021/05/05 00:31:21;;;;;;;3.80;1.17;;;;;;;8.99;80.22;98848.63;5197388;28;20494;-78
2021/05/05 00:33:52;;;;;;;4.93;1.30;;;;;;;9.06;79.30;98852.59;5193960;28;20026;-78
2021/05/05 00:36:22;;;;;;;4.43;1.40;;;;;;;9.09;79.63;98855.81;5188628;28;20701;-79
2021/05/05 00:38:52;;;;;;;5.03;1.30;;;;;;;8.98;79.29;98852.16;5202053;28;20404;-78
2021/05/05 00:41:23;;;;;;;6.50;1.05;;;;;;;8.90;80.20;98841.34;5184130;28;20071;-79
2021/05/05 00:43:53;;;;;;;3.65;1.10;;;;;;;9.01;79.62;98842.41;5196751;28;20032;-79
2021/05/05 00:46:23;;;;;;;4.93;1.20;;;;;;;9.04;79.78;98844.00;5178089;28;21499;-79
2021/05/05 00:48:54;;;;;;;3.30;1.15;;;;;;;8.97;79.81;98840.91;5183829;28;20052;-78
2021/05/05 00:51:24;;;;;;;3.20;1.20;;;;;;;9.00;79.42;98826.84;5198926;28;20034;-78
2021/05/05 00:53:54;;;;;;;3.67;1.30;;;;;;;8.84;78.81;98837.31;5176962;28;20455;-78
2021/05/05 00:56:25;;;;;;;4.30;1.23;;;;;;;8.77;78.55;98829.94;5194038;28;20152;-79
2021/05/05 00:58:55;;;;;;;4.55;1.30;;;;;;;8.78;79.29;98832.47;5177471;28;20018;-79
2021/05/05 01:01:26;;;;;;;5.43;1.30;;;;;;;8.63;79.52;98832.47;5195965;28;20029;-78
2021/05/05 01:03:56;;;;;;;5.20;1.60;;;;;;;8.73;79.15;98842.28;5193296;28;20025;-78
2021/05/05 01:06:27;;;;;;;4.07;1.70;;;;;;;8.76;79.27;98841.28;5193184;28;20380;-78
2021/05/05 01:08:57;;;;;;;4.65;1.70;;;;;;;8.69;79.94;98840.78;5175872;28;20108;-79
2021/05/05 01:11:28;;;;;;;5.68;1.83;;;;;;;8.74;79.74;98830.94;5192944;28;20033;-78
2021/05/05 02:57:29;;;;;;;3.67;1.80;;;;;;;8.17;81.64;98797.69;5209830;28;20037;-78
2021/05/05 02:59:59;;;;;;;2.67;1.50;;;;;;;8.24;81.77;98795.63;5214713;28;20040;-77
2021/05/05 03:02:31;;;;;;;4.57;1.98;;;;;;;8.16;81.43;98785.59;5212044;28;20053;-77
2021/05/05 03:05:04;;;;;;;4.93;1.50;;;;;;;8.10;81.82;98785.09;5193281;28;20685;-78
2021/05/05 03:07:34;;;;;;;3.42;1.60;;;;;;;8.16;82.42;98790.81;5211719;28;20026;-78
2021/05/05 03:10:06;;;;;;;5.13;1.85;;;;;;;8.07;81.73;98788.69;5211085;28;20128;-77
2021/05/05 03:12:36;;;;;;;3.70;1.67;;;;;;;8.09;81.58;98784.25;5214218;28;20033;-77
2021/05/05 03:15:08;;;;;;;4.28;1.70;;;;;;;8.01;82.80;98793.41;5217547;28;20025;-77
2021/05/05 03:17:38;;;;;;;2.97;1.63;;;;;;;8.08;82.33;98799.94;5219876;28;20456;-77
2021/05/05 03:20:10;;;;;;;3.63;2.00;;;;;;;7.98;82.81;98801.34;5215843;28;20016;-77
2021/05/05 03:22:41;;;;;;;4.20;2.20;;;;;;;7.94;84.34;98792.03;5208617;28;20052;-78
2021/05/05 03:25:12;;;;;;;3.90;1.80;;;;;;;7.87;84.68;98788.91;5216728;28;20068;-77
2021/05/05 03:27:42;;;;;;;4.15;2.10;;;;;;;7.69;85.81;98789.06;5220259;28;20451;-77
2021/05/05 03:30:13;;;;;;;2.85;1.90;;;;;;;7.65;86.45;98783.19;5217940;28;20546;-78
2021/05/05 03:32:43;;;;;;;5.57;2.47;;;;;;;7.68;86.50;98785.59;5215919;28;20117;-78
2021/05/05 03:35:14;;;;;;;3.47;2.33;;;;;;;7.66;86.16;98794.44;5224014;28;20016;-77
2021/05/05 03:37:44;;;;;;;6.10;2.22;;;;;;;7.65;85.95;98793.56;5216385;28;20048;-78
2021/05/05 03:40:15;;;;;;;3.78;2.22;;;;;;;7.68;86.03;98783.00;5216355;28;20095;-77
2021/05/05 03:42:45;;;;;;;5.82;2.33;;;;;;;7.76;85.41;98793.88;5211408;28;20417;-78
2021/05/05 03:45:16;;;;;;;6.28;2.70;;;;;;;7.73;85.96;98783.59;5213021;28;20059;-78
2021/05/05 03:47:47;;;;;;;4.75;2.80;;;;;;;7.55;86.79;98792.34;5216365;28;20040;-78
2021/05/05 03:50:18;;;;;;;5.30;2.60;;;;;;;7.59;86.29;98799.09;5204746;28;20017;-79
2021/05/05 03:52:48;;;;;;;4.43;2.47;;;;;;;7.56;86.53;98788.84;5213720;28;20536;-78
2021/05/05 03:55:20;;;;;;;3.38;2.20;;;;;;;7.54;86.32;98795.88;5218272;28;20031;-79
2021/05/05 03:57:50;;;;;;;5.70;2.10;;;;;;;7.56;86.81;98801.00;5221093;28;20029;-78
2021/05/05 04:00:21;;;;;;;5.43;2.55;;;;;;;7.54;86.81;98806.28;5214096;28;20181;-79
2021/05/05 04:02:51;;;;;;;4.05;2.38;;;;;;;7.59;87.08;98804.31;5222778;28;20032;-79
2021/05/05 04:05:21;;;;;;;4.90;2.40;;;;;;;7.62;86.54;98814.53;5215552;28;20598;-78
2021/05/05 04:07:52;;;;;;;4.32;2.42;;;;;;;7.65;87.36;98801.38;5216841;28;20037;-79
2021/05/05 04:10:22;;;;;;;5.93;2.60;;;;;;;7.61;86.95;98805.06;5220811;28;20048;-79
2021/05/05 04:12:52;;;;;;;6.63;2.35;;;;;;;7.58;87.04;98800.03;5216554;28;20028;-79
2021/05/05 04:15:23;;;;;;;5.60;2.53;;;;;;;7.56;87.21;98814.81;5221915;28;20036;-79
2021/05/05 04:17:53;;;;;;;6.25;2.60;;;;;;;7.61;86.71;98802.47;5219684;28;20029;-79
2021/05/05 04:20:23;;;;;;;5.13;2.60;;;;;;;7.65;86.47;98816.97;5220115;28;20432;-78
2021/05/05 04:22:54;;;;;;;6.05;2.50;;;;;;;7.62;86.71;98822.34;5215988;28;20017;-79
2021/05/05 04:25:24;;;;;;;8.60;2.47;;;;;;;7.56;86.52;98825.22;5223619;28;20025;-78
2021/05/05 04:27:55;;;;;;;6.43;2.53;;;;;;;7.65;86.10;98823.91;5220759;28;20500;-78
2021/05/05 04:30:25;;;;;;;5.78;2.60;;;;;;;7.65;86.22;98818.72;5221188;28;20105;-79
2021/05/05 04:32:56;;;;;;;7.20;2.50;;;;;;;7.68;86.05;98819.41;5219324;28;20108;-79
2021/05/05 04:35:26;;;;;;;4.13;2.10;;;;;;;7.80;85.61;98825.72;5225339;28;20045;-78
2021/05/05 04:37:56;;;;;;;6.00;2.55;;;;;;;7.97;85.77;98816.13;5218970;28;20029;-78
2021/05/05 04:40:26;;;;;;;5.07;2.40;;;;;;;7.89;85.30;98822.66;5220182;28;20025;-79
2021/05/05 04:42:57;;;;;;;5.18;2.50;;;;;;;7.97;84.79;98823.94;5219734;28;20505;-79
2021/05/05 04:45:27;;;;;;;7.13;2.80;;;;;;;8.77;83.32;98820.38;5220762;28;20033;-79
2021/05/05 04:47:59;;;;;;;4.60;2.50;;;;;;;8.97;80.96;98822.69;5215125;28;20066;-78
2021/05/05 04:50:29;;;;;;;5.05;2.50;;;;;;;9.36;80.67;98815.16;5221391;28;20372;-78
2021/05/05 04:53:00;;;;;;;5.18;2.67;;;;;;;9.04;81.56;98826.59;5223704;28;20032;-79
2021/05/05 04:55:30;;;;;;;7.07;2.97;;;;;;;8.76;83.17;98830.88;5223506;28;20083;-79
2021/05/05 04:58:00;;;;;;;7.15;2.80;;;;;;;8.53;84.16;98839.94;5223532;28;20037;-78
2021/05/05 05:00:31;;;;;;;4.38;3.03;;;;;;;8.53;83.89;98831.31;5223422;28;20111;-78
2021/05/05 05:03:01;;;;;;;5.82;3.15;;;;;;;8.53;84.20;98836.53;5221615;28;20060;-79
2021/05/05 05:05:31;;;;;;;4.97;2.58;;;;;;;8.40;84.59;98845.91;5223983;28;20033;-78
2021/05/05 05:08:02;;;;;;;6.97;2.83;;;;;;;8.50;84.76;98850.53;5220412;28;20053;-79
2021/05/05 05:10:32;;;;;;;5.18;2.85;;;;;;;8.41;84.74;98845.81;5220669;28;20017;-79
2021/05/05 05:13:03;;;;;;;6.63;2.67;;;;;;;8.42;84.71;98850.09;5221660;28;20049;-79
2021/05/05 05:15:34;;;;;;;5.80;3.03;;;;;;;8.54;84.93;98843.41;5221571;28;20112;-80
2021/05/05 05:18:04;;;;;;;6.50;3.10;;;;;;;8.52;84.14;98846.06;5220623;28;20107;-79
2021/05/05 05:20:35;;;;;;;6.22;3.00;;;;;;;8.60;83.82;98851.72;5224840;28;20122;-79
2021/05/05 05:23:05;;;;;;;6.13;2.80;;;;;;;8.53;82.74;98855.56;5224094;28;20605;-79
2021/05/05 05:25:36;;;;;;;5.65;2.22;;;;;;;8.68;82.09;98846.91;5219387;28;20033;-79
2021/05/05 05:28:06;;;;;;;5.80;2.67;;;;;;;10.12;77.36;98861.81;5217872;28;20041;-79
2021/05/05 05:30:36;;;;;;;6.43;2.35;;;;;;;9.93;76.83;98849.03;5230302;28;20068;-79
2021/05/05 05:33:07;;;;;;;5.00;2.28;;;;;;;9.68;78.36;98855.81;5203234;28;20037;-79
2021/05/05 05:35:37;;;;;;;6.65;2.58;;;;;;;9.15;80.15;98858.09;5205055;28;20053;-80
2021/05/05 05:38:08;;;;;;;5.20;2.40;;;;;;;9.32;80.24;98857.97;5222468;28;20029;-78
2021/05/05 05:40:39;;;;;;;4.68;2.45;;;;;;;11.40;74.12;98863.91;5222915;28;20031;-79
2021/05/05 05:43:09;;;;;;;3.97;2.13;;;;;;;11.03;73.05;98862.03;5220643;28;20072;-79
2021/05/05 05:45:39;;;;;;;5.38;2.20;;;;;;;10.50;74.85;98855.09;5223484;28;20072;-78
2021/05/05 05:48:11;;;;;;;4.38;2.08;;;;;;;13.17;67.68;98856.63;5222259;28;20623;-79
2021/05/05 05:50:41;;;;;;;5.65;2.00;;;;;;;14.77;62.28;98861.66;5223242;28;20088;-79
2021/05/05 05:53:12;;;;;;;4.65;2.20;;;;;;;14.70;62.80;98853.44;5201962;28;20545;-78
2021/05/05 05:55:44;;;;;;;6.25;2.33;;;;;;;15.37;60.44;98863.66;5201575;28;20033;-79
2021/05/05 05:58:14;;;;;;;6.93;2.42;;;;;;;13.36;68.13;98875.28;5214565;28;20031;-79
2021/05/05 06:00:44;;;;;;;6.55;2.60;;;;;;;11.59;74.46;98885.34;5212067;28;20033;-78
2021/05/05 06:03:15;;;;;;;4.72;2.45;;;;;;;10.73;79.40;98888.44;5219481;28;20028;-77
2021/05/05 06:05:45;;;;;;;6.10;2.92;;;;;;;9.62;84.26;98883.09;5214553;28;20040;-78
2021/05/05 06:08:15;;;;;;;6.82;2.80;;;;;;;9.26;84.08;98881.78;5218564;28;20478;-78
2021/05/05 06:10:47;;;;;;;7.65;3.00;;;;;;;9.65;85.25;98895.13;5216235;28;20021;-78
2021/05/05 06:13:17;;;;;;;7.38;2.78;;;;;;;8.88;85.68;98890.91;5220088;28;20028;-79
2021/05/05 06:15:49;;;;;;;5.90;2.53;;;;;;;8.78;87.30;98896.72;5221859;28;20076;-78
2021/05/05 06:18:19;;;;;;;8.30;2.30;;;;;;;8.85;85.51;98892.84;5220407;28;20025;-78
2021/05/05 06:20:50;;;;;;;6.60;2.20;;;;;;;9.11;84.82;98903.50;5219278;28;20047;-77
2021/05/05 06:23:20;;;;;;;5.90;2.40;;;;;;;9.13;84.21;98902.47;5200573;28;20024;-79
2021/05/05 06:25:50;;;;;;;5.43;2.08;;;;;;;9.41;82.74;98906.97;5220265;28;20037;-78
2021/05/05 06:28:20;;;;;;;6.00;2.00;;;;;;;9.16;83.64;98911.91;5197651;28;20526;-78
2021/05/05 06:30:54;;;;;;;6.80;2.15;;;;;;;8.98;83.19;98912.06;5212876;28;20025;-78
2021/05/05 06:33:25;;;;;;;3.75;1.77;;;;;;;8.83;83.37;98913.78;5220637;28;20029;-78
2021/05/05 06:35:56;;;;;;;4.18;1.80;;;;;;;8.95;82.95;98907.91;5217351;28;20039;-78
2021/05/05 06:38:26;;;;;;;6.43;1.60;;;;;;;9.92;79.50;98924.78;5219468;28;20507;-79
2021/05/05 06:40:57;;;;;;;5.53;1.95;;;;;;;10.05;78.23;98921.41;5205524;28;20634;-78
2021/05/05 06:43:27;;;;;;;7.38;1.92;;;;;;;9.54;79.75;98919.22;5218794;28;20033;-78
2021/05/05 06:45:57;;;;;;;6.13;1.80;;;;;;;9.18;81.09;98923.06;5219500;28;20040;-79
2021/05/05 06:48:28;;;;;;;6.07;1.95;;;;;;;9.57;80.89;98928.63;5220092;28;20104;-79
2021/05/05 06:50:59;;;;;;;5.07;1.67;;;;;;;9.75;80.26;98930.16;5220245;28;20021;-78
2021/05/05 06:53:29;;;;;;;6.65;1.80;;;;;;;9.96;80.99;98927.13;5203186;28;20107;-78
2021/05/05 06:55:59;;;;;;;4.82;1.70;;;;;;;10.40;78.12;98927.09;5200745;28;20029;-78
2021/05/05 06:58:29;;;;;;;6.10;1.90;;;;;;;10.28;76.79;98938.28;5215570;28;20052;-78
2021/05/05 07:01:00;;;;;;;6.22;2.00;;;;;;;10.65;76.34;98938.56;5215281;28;20022;-79
2021/05/05 07:03:30;;;;;;;6.45;2.03;;;;;;;10.30;76.72;98934.66;5203820;28;20394;-78
2021/05/05 07:06:02;;;;;;;4.55;1.67;;;;;;;10.02;78.30;98947.66;5222197;28;20020;-77
2021/05/05 07:08:32;;;;;;;6.28;2.03;;;;;;;9.67;79.67;98940.22;5221120;28;20029;-78
2021/05/05 07:11:02;;;;;;;8.38;2.38;;;;;;;9.37;78.86;98939.34;5220225;28;20032;-79
2021/05/05 07:13:33;;;;;;;6.35;1.95;;;;;;;9.32;79.42;98949.22;5221266;28;20057;-78
2021/05/05 07:16:04;;;;;;;4.68;2.03;;;;;;;9.16;80.62;98951.00;5201547;28;20087;-79
2021/05/05 07:18:34;;;;;;;8.80;2.92;;;;;;;9.01;80.29;98943.16;5219156;28;20033;-77
2021/05/05 07:21:04;;;;;;;6.78;2.20;;;;;;;9.04;80.78;98946.44;5198102;28;20031;-79
2021/05/05 07:23:35;;;;;;;5.32;2.30;;;;;;;8.89;82.51;98952.50;5221609;28;20025;-78
2021/05/05 07:26:05;;;;;;;5.50;2.60;;;;;;;8.82;83.24;98948.56;5220760;28;20202;-78
2021/05/05 07:28:37;;;;;;;5.70;2.83;;;;;;;8.96;83.23;98960.81;5222279;28;20070;-79
2021/05/05 07:31:07;;;;;;;4.97;2.53;;;;;;;10.28;82.14;98949.56;5216877;28;20025;-79
2021/05/05 07:33:38;;;;;;;5.13;2.20;;;;;;;10.85;76.86;98958.22;5220598;28;20490;-79
2021/05/05 07:36:17;;;;;;;2.72;1.50;;;;;;;13.45;68.92;98951.59;5223729;28;20115;-79
2021/05/05 07:42:22;;;;;;;2.78;0.80;;;;;;;16.25;60.53;98952.75;5222087;28;20067;-79
2021/05/05 07:47:26;;;;;;;3.53;1.10;;;;;;;12.53;68.22;98969.63;5253769;28;20085;-81
2021/05/05 07:49:59;;;;;;;2.78;1.05;;;;;;;11.30;71.24;98975.28;5258922;28;20030;-80
2021/05/05 07:52:29;;;;;;;4.68;1.40;;;;;;;12.02;71.37;98988.88;5265239;28;20705;-79
2021/05/05 07:55:01;;;;;;;4.50;1.20;;;;;;;11.44;71.13;98975.25;5241086;28;20032;-81
2021/05/05 07:57:31;;;;;;;6.78;1.60;;;;;;;10.98;72.19;98972.19;5244839;28;20020;-80
2021/05/05 08:00:06;;;;;;;7.82;1.50;;;;;;;11.93;70.71;98973.75;5244409;28;20028;-81
2021/05/05 08:02:36;;;;;;;6.07;1.33;;;;;;;12.41;68.17;98967.81;5237840;28;20036;-80
2021/05/05 08:05:07;;;;;;;5.78;1.58;;;;;;;14.31;63.80;98960.84;5233466;28;20082;-80
2021/05/05 08:07:38;;;;;;;7.90;1.58;;;;;;;15.21;61.17;98968.47;5237392;28;20065;-81
2021/05/05 08:10:10;;;;;;;6.07;1.60;;;;;;;14.05;62.95;98972.47;5231411;28;20028;-81
2021/05/05 08:12:40;;;;;;;6.68;1.55;;;;;;;13.44;64.58;98976.13;5234741;28;20028;-80
2021/05/05 08:15:12;;;;;;;6.43;1.60;;;;;;;13.00;65.25;98980.25;5233244;28;20078;-79
2021/05/05 08:17:43;;;;;;;5.10;1.40;;;;;;;12.17;67.28;99006.19;5238998;28;20335;-79
2021/05/05 08:20:15;;;;;;;6.40;1.70;;;;;;;11.39;70.02;98993.03;5234135;28;20288;-80
2021/05/05 08:22:45;;;;;;;7.15;1.60;;;;;;;10.83;72.60;98992.28;5230194;28;20024;-80
2021/05/05 08:25:16;;;;;;;5.53;1.48;;;;;;;10.83;72.86;98992.28;5234492;28;20028;-79
2021/05/05 08:27:46;;;;;;;6.03;1.73;;;;;;;11.00;71.62;98992.09;5244530;28;20031;-81
2021/05/05 08:30:17;;;;;;;5.45;1.42;;;;;;;12.22;68.90;98990.97;5245238;28;20024;-80
2021/05/05 08:32:47;;;;;;;6.85;1.95;;;;;;;11.72;68.04;98998.72;5241366;28;20029;-80
2021/05/05 08:35:18;;;;;;;5.28;1.40;;;;;;;11.67;67.78;98990.34;5233168;28;20051;-80
2021/05/05 08:37:49;;;;;;;5.38;1.30;;;;;;;12.80;67.37;98999.13;5237599;28;20056;-80
2021/05/05 08:40:21;;;;;;;6.57;1.40;;;;;;;12.20;66.96;98998.09;5233280;28;20029;-81
2021/05/05 08:42:51;;;;;;;6.00;1.52;;;;;;;12.56;66.31;99000.00;5219095;28;20024;-81
2021/05/05 08:45:24;;;;;;;5.40;1.42;;;;;;;13.34;63.50;98985.63;5235076;28;20385;-81
2021/05/05 08:48:00;;;;;;;5.82;1.38;;;;;;;14.06;60.50;98984.66;5237397;28;20024;-81
2021/05/05 08:50:33;;;;;;;8.25;1.52;;;;;;;15.70;58.77;98989.09;5236024;28;20474;-80
2021/05/05 08:53:05;;;;;;;5.60;1.50;;;;;;;15.11;58.09;98999.13;5235331;28;20106;-81
2021/05/05 08:55:36;;;;;;;7.72;1.52;;;;;;;13.66;60.58;99004.28;5239474;28;20037;-81
2021/05/05 08:58:06;;;;;;;7.93;1.63;;;;;;;13.50;60.64;99014.22;5242452;28;20603;-81
2021/05/05 09:00:37;;;;;;;12.70;1.70;;;;;;;12.50;64.06;99014.34;5231822;28;20012;-81
2021/05/05 09:03:08;;;;;;;7.15;1.50;;;;;;;12.59;64.49;99008.50;5236134;28;20031;-80
2021/05/05 09:05:48;;;;;;;9.15;2.03;;;;;;;12.29;63.78;99005.31;5216432;28;20043;-80
2021/05/05 09:08:19;;;;;;;11.90;2.08;;;;;;;11.89;64.38;99006.31;5236411;28;20540;-80
2021/05/05 09:11:04;;;;;;;10.93;2.85;;;;;;;11.60;64.59;99012.59;5237697;28;20028;-80
2021/05/05 09:13:58;;;;;;;7.50;2.03;;;;;;;11.27;65.83;99037.44;5238929;28;20033;-81
2021/05/05 09:16:31;;;;;;;7.43;1.70;;;;;;;10.88;68.62;99024.19;5235226;28;20040;-79
2021/05/05 09:19:03;;;;;;;11.30;2.22;;;;;;;10.86;68.38;99031.28;5235536;28;20029;-80
2021/05/05 09:21:37;;;;;;;7.90;1.88;;;;;;;10.80;68.78;99031.69;5219064;28;20104;-80
2021/05/05 09:24:33;;;;;;;10.07;1.80;;;;;;;10.78;68.25;99043.16;5236148;28;20428;-79
2021/05/05 09:27:07;;;;;;;10.68;1.70;;;;;;;10.53;68.36;99032.50;5240127;28;20130;-80
2021/05/05 09:29:50;;;;;;;10.27;2.15;;;;;;;10.51;70.02;99037.81;5247491;28;20024;-80
2021/05/05 09:32:21;;;;;;;10.85;2.15;;;;;;;11.02;69.53;99038.13;5242213;28;20375;-80
2021/05/05 09:35:10;;;;;;;9.52;1.90;;;;;;;11.26;68.40;99027.91;5238839;28;20036;-79
2021/05/05 09:37:40;;;;;;;9.95;1.95;;;;;;;11.03;67.82;99024.09;5240782;28;20366;-80
2021/05/05 09:40:11;;;;;;;10.13;1.70;;;;;;;10.89;68.13;99025.88;5236999;28;20021;-80
2021/05/05 09:42:41;;;;;;;8.15;1.80;;;;;;;11.35;67.78;99028.16;5238310;28;20035;-81
2021/05/05 09:45:12;;;;;;;10.20;2.38;;;;;;;11.06;68.59;99029.13;5237109;28;20017;-80
2021/05/05 09:47:49;;;;;;;8.20;1.65;;;;;;;11.90;66.42;99012.38;5239127;28;20036;-80
2021/05/05 09:50:32;;;;;;;7.45;1.77;;;;;;;11.97;65.11;99009.25;5239424;28;20511;-80
2021/05/05 09:53:19;;;;;;;8.95;1.58;;;;;;;11.90;65.70;99023.69;5237409;28;20078;-80
2021/05/05 09:55:52;;;;;;;10.07;2.40;;;;;;;11.81;66.00;99005.97;5243827;28;20068;-80
2021/05/05 09:58:28;;;;;;;8.35;1.70;;;;;;;11.91;64.83;99008.81;5245378;28;20078;-80
2021/05/05 10:01:11;;;;;;;;;;;;;;;11.89;66.09;99001.06;5230114;28;20513;-80
2021/05/05 10:03:55;;;;;;;9.82;2.13;;;;;;;11.92;66.30;99010.53;5240189;28;19923;-81
2021/05/05 10:06:32;;;;;;;7.78;1.73;;;;;;;11.32;65.89;99015.28;5240154;28;20039;-80
2021/05/05 10:09:12;;;;;;;10.00;1.80;;;;;;;11.13;68.17;99019.97;5237651;28;20395;-80
2021/05/05 10:11:45;;;;;;;9.43;1.92;;;;;;;10.99;70.90;99019.16;5235858;28;20044;-80
2021/05/05 10:14:18;;;;;;;9.90;2.22;;;;;;;10.75;75.27;99044.19;5239029;28;20035;-80
2021/05/05 10:16:52;;;;;;;8.45;1.90;;;;;;;10.02;81.01;99046.00;5239028;28;20028;-80
2021/05/05 10:19:26;;;;;;;8.80;2.50;;;;;;;9.69;82.90;99047.91;5236185;28;20084;-79
2021/05/05 10:22:00;;;;;;;5.70;1.88;;;;;;;9.78;83.34;99053.44;5237257;28;20040;-80
2021/05/05 10:24:37;;;;;;;8.15;2.28;;;;;;;10.23;84.12;99050.84;5235690;28;20025;-81
2021/05/05 10:27:07;;;;;;;5.07;1.73;;;;;;;10.90;84.24;99052.84;5244578;28;20024;-79
2021/05/05 10:29:40;;;;;;;6.55;1.77;;;;;;;11.05;78.94;99045.75;5244352;28;20097;-79
2021/05/05 10:32:13;;;;;;;5.53;2.08;;;;;;;10.77;80.74;99054.53;5239485;28;20116;-80
2021/05/05 10:34:49;;;;;;;5.30;1.88;;;;;;;10.59;82.07;99051.28;5236158;28;20021;-79
2021/05/05 10:37:38;;;;;;;6.82;1.80;;;;;;;10.61;79.71;99069.44;5235114;28;20086;-80
2021/05/05 10:40:18;;;;;;;5.72;1.70;;;;;;;11.05;76.94;99073.66;5233957;28;20101;-80
2021/05/05 10:42:54;;;;;;;4.78;1.38;;;;;;;11.27;75.09;99076.66;5233177;28;20023;-80
2021/05/05 10:45:32;;;;;;;5.82;1.60;;;;;;;10.93;72.54;99077.03;5233506;28;20052;-79
2021/05/05 10:48:14;;;;;;;4.70;1.70;;;;;;;11.53;74.12;99071.47;5233599;28;20037;-79
2021/05/05 10:50:54;;;;;;;5.97;1.70;;;;;;;11.46;69.12;99064.09;5232582;28;20035;-80
2021/05/05 10:53:38;;;;;;;4.82;1.60;;;;;;;11.88;68.94;99066.59;5232696;28;20032;-80
2021/05/05 10:56:28;;;;;;;7.82;1.67;;;;;;;11.88;67.82;99056.13;5235331;28;20476;-80
2021/05/05 10:59:06;;;;;;;4.80;1.77;;;;;;;12.20;69.63;99050.47;5221365;28;20032;-79
2021/05/05 11:01:39;;;;;;;7.38;1.70;;;;;;;12.44;68.20;99067.19;5235106;28;20166;-80
2021/05/05 11:04:14;;;;;;;6.63;1.90;;;;;;;11.87;67.10;99070.16;5234262;28;20040;-79
2021/05/05 11:06:53;;;;;;;5.50;1.63;;;;;;;12.00;67.48;99065.81;5233185;28;20051;-79
2021/05/05 11:09:23;;;;;;;5.32;1.63;;;;;;;12.06;66.19;99062.78;5235970;28;20048;-79
2021/05/05 11:11:54;;;;;;;7.35;1.65;;;;;;;12.32;66.37;99070.59;5233896;28;20064;-79
2021/05/05 11:14:24;;;;;;;7.93;1.63;;;;;;;12.61;69.07;99063.44;5230557;28;20650;-80
2021/05/05 11:16:55;;;;;;;4.38;1.60;;;;;;;12.09;66.94;99084.38;5231847;28;20099;-79
2021/05/05 11:19:46;;;;;;;7.53;1.90;;;;;;;12.04;66.46;99060.28;5230771;28;20272;-80
2021/05/05 11:22:19;;;;;;;6.57;1.70;;;;;;;11.92;66.35;99079.41;5231066;28;20456;-80
2021/05/05 11:24:50;;;;;;;4.15;1.70;;;;;;;12.43;65.83;99062.88;5232481;28;20020;-80
2021/05/05 11:27:48;;;;;;;5.80;1.80;;;;;;;12.51;63.17;99083.31;5237432;28;20039;-79
2021/05/05 11:30:33;;;;;;;5.15;1.65;;;;;;;12.42;64.73;99069.06;5229278;28;20051;-81
2021/05/05 11:33:03;;;;;;;4.67;1.70;;;;;;;12.15;65.61;99086.59;5233933;28;20032;-80
2021/05/05 11:35:35;;;;;;;6.60;1.80;;;;;;;12.32;64.63;99094.19;5231788;28;20285;-79
2021/05/05 11:38:22;;;;;;;7.03;1.70;;;;;;;12.19;63.52;99082.84;5237713;28;20086;-79
2021/05/05 11:41:01;;;;;;;10.70;1.85;;;;;;;12.09;64.88;99080.94;5240068;28;20527;-79
2021/05/05 11:43:32;;;;;;;9.25;1.58;;;;;;;12.36;64.56;99082.59;5235109;28;20401;-79
2021/05/05 11:46:04;;;;;;;6.18;1.70;;;;;;;12.30;63.65;99090.81;5233723;28;20029;-79
2021/05/05 11:48:37;;;;;;;6.28;1.77;;;;;;;12.28;63.48;99086.66;5233471;28;20098;-79
2021/05/05 11:51:24;;;;;;;5.63;1.60;;;;;;;12.18;64.38;99085.56;5234122;28;20028;-79
2021/05/05 11:53:55;;;;;;;5.80;1.65;;;;;;;12.48;62.87;99089.59;5235623;28;20171;-79
2021/05/05 11:56:26;;;;;;;8.35;1.70;;;;;;;12.54;62.79;99089.22;5242199;28;20032;-79
2021/05/05 11:59:01;;;;;;;4.55;1.48;;;;;;;12.32;62.31;99080.25;5243464;28;20024;-79
2021/05/05 12:01:35;;;;;;;5.20;1.45;;;;;;;12.46;64.32;99091.50;5243384;28;20124;-79
2021/05/05 12:04:16;;;;;;;6.25;1.55;;;;;;;12.25;63.59;99107.78;5232899;28;20103;-79
2021/05/05 12:06:58;;;;;;;4.70;1.50;;;;;;;12.25;64.05;99116.50;5233601;28;20390;-80
2021/05/05 12:09:36;;;;;;;5.55;1.90;;;;;;;11.84;67.04;99110.50;5238059;28;20374;-79
2021/05/05 12:12:17;;;;;;;6.75;1.45;;;;;;;11.65;66.80;99117.78;5230368;28;20033;-80
2021/05/05 12:14:51;;;;;;;5.95;1.70;;;;;;;11.96;68.01;99124.56;5234489;28;20028;-80
2021/05/05 12:20:12;;;;;;;8.52;1.90;;;;;;;12.37;66.65;99110.44;5233955;28;20024;-79
2021/05/05 12:22:55;;;;;;;3.30;1.50;;;;;;;12.45;65.55;99120.44;5234632;28;20501;-80
2021/05/05 12:25:29;;;;;;;4.88;1.30;;;;;;;12.33;65.05;99110.75;5238303;28;20037;-80
2021/05/05 12:28:17;;;;;;;5.53;1.77;;;;;;;12.26;64.75;99123.41;5243918;28;20044;-80
2021/05/05 12:30:52;;;;;;;5.88;1.42;;;;;;;12.46;63.56;99114.25;5239004;28;20035;-79
2021/05/05 12:33:34;;;;;;;5.28;1.50;;;;;;;12.49;63.78;99120.09;5235230;28;20025;-80
2021/05/05 12:36:15;;;;;;;7.60;1.80;;;;;;;12.00;64.01;99126.91;5234714;28;20036;-81
2021/05/05 12:38:50;;;;;;;6.15;1.63;;;;;;;12.36;64.51;99121.88;5233531;28;20033;-79
2021/05/05 12:41:24;;;;;;;;;;;;;;;12.23;63.82;99125.38;5240155;28;20657;-79
2021/05/05 12:43:58;;;;;;;7.53;1.70;;;;;;;11.93;64.39;99140.47;5236052;28;19923;-81
2021/05/05 12:49:34;;;;;;;2.85;0.90;;;;;;;10.24;77.30;99200.47;5239940;28;20048;-80
2021/05/05 12:52:08;;;;;;;2.80;0.65;;;;;;;9.63;79.63;99208.16;5236065;28;20562;-79
2021/05/05 12:54:44;;;;;;;2.60;0.60;;;;;;;9.60;82.32;99200.50;5238328;28;20029;-80
2021/05/05 12:57:19;;;;;;;2.28;0.70;;;;;;;9.87;80.18;99193.81;5246973;28;20024;-79
2021/05/05 12:59:51;;;;;;;3.22;0.70;;;;;;;10.25;80.82;99194.31;5249237;28;20021;-80
2021/05/05 13:02:25;;;;;;;3.22;0.98;;;;;;;10.59;81.05;99194.09;5235283;28;20428;-81
2021/05/05 13:05:07;;;;;;;2.20;0.90;;;;;;;10.96;79.86;99198.84;5235415;28;20068;-79
2021/05/05 13:07:41;;;;;;;3.65;1.00;;;;;;;10.92;77.39;99202.56;5235709;28;20048;-79
2021/05/05 13:10:22;;;;;;;3.72;1.13;;;;;;;11.29;78.13;99203.75;5238454;28;20050;-80
2021/05/05 13:13:03;;;;;;;3.42;1.35;;;;;;;11.14;76.24;99217.72;5239644;28;20029;-79
2021/05/05 13:30:17;;;;;;;5.63;1.25;;;;;;;10.38;81.50;99227.47;5241405;28;20028;-79
2021/05/05 13:32:57;;;;;;;4.18;1.40;;;;;;;10.78;81.88;99221.69;5237358;28;20052;-79
2021/05/05 13:36:00;;;;;;;4.53;1.02;;;;;;;10.79;79.31;99219.91;5238430;28;20059;-81
2021/05/05 13:38:36;;;;;;;5.15;1.05;;;;;;;10.89;76.82;99239.34;5182476;28;20490;-80
2021/05/05 13:41:08;;;;;;;4.15;1.30;;;;;;;10.86;76.98;99229.09;5241111;28;20362;-80
2021/05/05 13:43:52;;;;;;;3.10;0.95;;;;;;;10.83;74.40;99219.63;5229568;28;20028;-80
2021/05/05 13:49:05;;;;;;;5.00;1.00;;;;;;;11.09;73.92;99227.63;5233021;28;20032;-79
2021/05/05 13:51:35;;;;;;;7.53;1.40;;;;;;;10.95;74.07;99228.53;5233586;28;20024;-79
2021/05/05 13:54:05;;;;;;;6.00;0.90;;;;;;;10.98;72.66;99213.50;5234077;28;20043;-79
2021/05/05 13:56:36;;;;;;;4.45;1.05;;;;;;;11.22;73.09;99220.75;5242712;28;20033;-79
2021/05/05 13:59:06;;;;;;;4.88;1.10;;;;;;;11.37;71.54;99225.06;5243811;28;20025;-79
2021/05/05 14:01:36;;;;;;;3.75;0.90;;;;;;;11.34;70.59;99245.31;5235513;28;20112;-79
2021/05/05 14:04:06;;;;;;;3.88;0.73;;;;;;;11.39;69.29;99241.50;5237007;28;20505;-79
2021/05/05 14:06:41;;;;;;;3.65;1.00;;;;;;;11.37;68.94;99248.59;5234526;28;20456;-79
2021/05/05 14:09:12;;;;;;;5.10;0.95;;;;;;;11.20;69.69;99267.06;5232876;28;20025;-79
2021/05/05 14:11:43;;;;;;;3.25;0.70;;;;;;;11.14;70.86;99259.56;5233326;28;20222;-79
2021/05/05 14:14:15;;;;;;;3.10;0.90;;;;;;;11.33;70.60;99262.81;5236677;28;20136;-79
2021/05/05 14:16:47;;;;;;;2.88;0.80;;;;;;;11.17;69.64;99277.72;5235749;28;20351;-79